sensor_id;sensor_type;location;lat;lon;timestamp;temperature;humidity
8332;DHT22;4203;48.144;14.118;2024-02-21T11:18:37;14.80;99.90
8332;DHT22;4203;48.144;14.118;2024-02-21T11:21:05;15.00;99.90
8332;DHT22;4203;48.144;14.118;2024-02-21T11:23:33;14.80;99.90
8332;DHT22;4203;48.144;14.118;2024-02-21T11:32:45;14.90;99.90
8332;DHT22;4203;48.144;14.118;2024-02-21T11:35:19;15.70;99.90
8332;DHT22;4203;48.144;14.118;2024-02-21T11:37:47;16.50;99.90
8332;DHT22;4203;48.144;14.118;2024-02-21T11:40:14;17.70;99.90
8332;DHT22;4203;48.144;14.118;2024-02-21T11:42:41;17.60;99.90
8332;DHT22;4203;48.144;14.118;2024-02-21T11:45:09;17.50;99.90
8332;DHT22;4203;48.144;14.118;2024-02-21T11:47:37;17.30;99.90
8332;DHT22;4203;48.144;14.118;2024-02-21T11:50:10;17.00;99.90
8332;DHT22;4203;48.144;14.118;2024-02-21T11:52:39;17.00;99.90
8332;DHT22;4203;48.144;14.118;2024-02-21T11:55:06;17.10;99.90
8332;DHT22;4203;48.144;14.118;2024-02-21T11:57:34;17.90;99.90
8332;DHT22;4203;48.144;14.118;2024-02-21T12:00:14;18.40;99.90
8332;DHT22;4203;48.144;14.118;2024-02-21T12:02:42;19.00;99.90
8332;DHT22;4203;48.144;14.118;2024-02-21T12:05:10;19.70;99.90
8332;DHT22;4203;48.144;14.118;2024-02-21T12:07:39;19.10;99.00
8332;DHT22;4203;48.144;14.118;2024-02-21T12:10:08;18.40;99.80
8332;DHT22;4203;48.144;14.118;2024-02-21T12:12:36;17.80;99.00
8332;DHT22;4203;48.144;14.118;2024-02-21T12:15:05;17.60;99.80
8332;DHT22;4203;48.144;14.118;2024-02-21T12:17:33;17.60;99.80
8332;DHT22;4203;48.144;14.118;2024-02-21T12:20:02;18.10;98.50
8332;DHT22;4203;48.144;14.118;2024-02-21T12:22:31;17.80;99.90
8332;DHT22;4203;48.144;14.118;2024-02-21T12:25:03;17.60;98.70
8332;DHT22;4203;48.144;14.118;2024-02-21T12:27:33;17.50;97.40
8332;DHT22;4203;48.144;14.118;2024-02-21T12:30:01;17.80;99.90
8332;DHT22;4203;48.144;14.118;2024-02-21T12:32:31;19.20;95.40
8332;DHT22;4203;48.144;14.118;2024-02-21T12:34:58;18.40;97.80
8332;DHT22;4203;48.144;14.118;2024-02-21T12:37:26;17.60;95.90
8332;DHT22;4203;48.144;14.118;2024-02-21T12:39:53;18.20;99.90
8332;DHT22;4203;48.144;14.118;2024-02-21T12:42:22;20.10;99.20
8332;DHT22;4203;48.144;14.118;2024-02-21T12:44:51;21.30;93.50
8332;DHT22;4203;48.144;14.118;2024-02-21T12:47:19;21.30;92.20
8332;DHT22;4203;48.144;14.118;2024-02-21T12:49:49;21.20;96.70
8332;DHT22;4203;48.144;14.118;2024-02-21T12:52:16;22.10;96.00
8332;DHT22;4203;48.144;14.118;2024-02-21T12:54:43;22.50;91.00
8332;DHT22;4203;48.144;14.118;2024-02-21T12:57:13;21.00;90.00
8332;DHT22;4203;48.144;14.118;2024-02-21T12:59:42;19.40;92.40
8332;DHT22;4203;48.144;14.118;2024-02-21T13:02:09;18.10;92.10
8332;DHT22;4203;48.144;14.118;2024-02-21T13:04:36;17.50;92.00
8332;DHT22;4203;48.144;14.118;2024-02-21T13:07:06;17.00;92.20
8332;DHT22;4203;48.144;14.118;2024-02-21T13:09:33;17.90;97.10
8332;DHT22;4203;48.144;14.118;2024-02-21T13:12:01;19.90;95.90
8332;DHT22;4203;48.144;14.118;2024-02-21T13:14:29;21.40;95.30
8332;DHT22;4203;48.144;14.118;2024-02-21T13:17:00;21.60;88.70
8332;DHT22;4203;48.144;14.118;2024-02-21T13:19:27;21.80;91.00
8332;DHT22;4203;48.144;14.118;2024-02-21T13:21:54;20.80;91.90
8332;DHT22;4203;48.144;14.118;2024-02-21T13:24:21;20.00;88.20
8332;DHT22;4203;48.144;14.118;2024-02-21T13:26:49;20.20;90.20
8332;DHT22;4203;48.144;14.118;2024-02-21T13:29:17;21.10;91.80
8332;DHT22;4203;48.144;14.118;2024-02-21T13:31:44;22.10;87.40
8332;DHT22;4203;48.144;14.118;2024-02-21T13:34:13;22.30;81.30
8332;DHT22;4203;48.144;14.118;2024-02-21T13:36:41;22.40;77.60
8332;DHT22;4203;48.144;14.118;2024-02-21T13:39:08;22.20;80.10
8332;DHT22;4203;48.144;14.118;2024-02-21T13:41:38;20.70;82.80
8332;DHT22;4203;48.144;14.118;2024-02-21T13:44:06;20.10;81.60
8332;DHT22;4203;48.144;14.118;2024-02-21T13:46:35;20.30;82.00
8332;DHT22;4203;48.144;14.118;2024-02-21T13:49:04;20.50;78.20
8332;DHT22;4203;48.144;14.118;2024-02-21T13:51:34;20.30;80.70
8332;DHT22;4203;48.144;14.118;2024-02-21T13:54:02;20.20;78.00
8332;DHT22;4203;48.144;14.118;2024-02-21T13:56:30;19.90;78.40
8332;DHT22;4203;48.144;14.118;2024-02-21T13:58:58;19.40;79.80
8332;DHT22;4203;48.144;14.118;2024-02-21T14:01:26;19.20;81.60
8332;DHT22;4203;48.144;14.118;2024-02-21T14:03:53;19.00;81.10
8332;DHT22;4203;48.144;14.118;2024-02-21T14:06:21;19.20;82.20
8332;DHT22;4203;48.144;14.118;2024-02-21T14:08:49;19.40;81.30
8332;DHT22;4203;48.144;14.118;2024-02-21T14:11:16;20.00;82.60
8332;DHT22;4203;48.144;14.118;2024-02-21T14:13:44;20.00;74.90
8332;DHT22;4203;48.144;14.118;2024-02-21T14:16:12;19.90;79.50
8332;DHT22;4203;48.144;14.118;2024-02-21T14:18:40;19.70;75.60
8332;DHT22;4203;48.144;14.118;2024-02-21T14:21:08;19.30;80.50
8332;DHT22;4203;48.144;14.118;2024-02-21T14:23:36;18.70;81.80
8332;DHT22;4203;48.144;14.118;2024-02-21T14:26:05;18.20;81.50
8332;DHT22;4203;48.144;14.118;2024-02-21T14:28:33;17.40;82.80
8332;DHT22;4203;48.144;14.118;2024-02-21T14:31:00;17.50;90.50
8332;DHT22;4203;48.144;14.118;2024-02-21T14:33:29;17.50;87.00
8332;DHT22;4203;48.144;14.118;2024-02-21T14:35:57;17.30;84.10
8332;DHT22;4203;48.144;14.118;2024-02-21T14:38:24;16.90;84.90
8332;DHT22;4203;48.144;14.118;2024-02-21T14:40:52;16.50;83.60
8332;DHT22;4203;48.144;14.118;2024-02-21T14:43:21;16.30;90.60
8332;DHT22;4203;48.144;14.118;2024-02-21T14:45:48;16.00;83.90
8332;DHT22;4203;48.144;14.118;2024-02-21T14:48:16;15.50;84.70
8332;DHT22;4203;48.144;14.118;2024-02-21T14:50:43;15.20;85.00
8332;DHT22;4203;48.144;14.118;2024-02-21T14:53:10;14.80;84.80
8332;DHT22;4203;48.144;14.118;2024-02-21T14:55:37;14.50;85.50
8332;DHT22;4203;48.144;14.118;2024-02-21T14:58:07;14.50;90.80
8332;DHT22;4203;48.144;14.118;2024-02-21T15:00:36;14.50;92.40
8332;DHT22;4203;48.144;14.118;2024-02-21T15:03:04;14.60;92.50
8332;DHT22;4203;48.144;14.118;2024-02-21T15:05:30;14.70;92.70
8332;DHT22;4203;48.144;14.118;2024-02-21T15:07:59;14.80;92.40
8332;DHT22;4203;48.144;14.118;2024-02-21T15:10:26;14.80;91.60
8332;DHT22;4203;48.144;14.118;2024-02-21T15:12:54;14.60;92.20
8332;DHT22;4203;48.144;14.118;2024-02-21T15:15:21;14.30;91.90
8332;DHT22;4203;48.144;14.118;2024-02-21T15:17:50;14.20;91.90
8332;DHT22;4203;48.144;14.118;2024-02-21T15:20:17;14.10;92.70
8332;DHT22;4203;48.144;14.118;2024-02-21T15:22:45;13.90;93.30
8332;DHT22;4203;48.144;14.118;2024-02-21T15:25:12;13.60;93.70
8332;DHT22;4203;48.144;14.118;2024-02-21T15:27:41;13.40;93.40
